sensor_id;sensor_type;location;lat;lon;timestamp;temperature;humidity
59025;DHT22;44806;48.008;13.666;2024-03-08T00:01:07;2.50;99.90
59025;DHT22;44806;48.008;13.666;2024-03-08T00:03:34;2.50;99.90
59025;DHT22;44806;48.008;13.666;2024-03-08T00:06:01;2.50;99.90
59025;DHT22;44806;48.008;13.666;2024-03-08T00:08:30;2.50;99.90
59025;DHT22;44806;48.008;13.666;2024-03-08T00:10:57;2.40;99.90
59025;DHT22;44806;48.008;13.666;2024-03-08T00:13:24;2.40;99.90
59025;DHT22;44806;48.008;13.666;2024-03-08T00:15:53;2.40;99.90
59025;DHT22;44806;48.008;13.666;2024-03-08T00:18:21;2.40;99.90
59025;DHT22;44806;48.008;13.666;2024-03-08T00:20:48;2.50;99.90
59025;DHT22;44806;48.008;13.666;2024-03-08T00:23:16;2.50;99.90
59025;DHT22;44806;48.008;13.666;2024-03-08T00:25:43;2.50;99.90
59025;DHT22;44806;48.008;13.666;2024-03-08T00:28:11;2.50;99.90
59025;DHT22;44806;48.008;13.666;2024-03-08T00:30:40;2.50;99.90
59025;DHT22;44806;48.008;13.666;2024-03-08T00:33:09;2.50;99.90
59025;DHT22;44806;48.008;13.666;2024-03-08T00:35:36;2.50;99.90
59025;DHT22;44806;48.008;13.666;2024-03-08T00:38:04;2.50;99.90
59025;DHT22;44806;48.008;13.666;2024-03-08T00:40:31;2.50;99.90
59025;DHT22;44806;48.008;13.666;2024-03-08T00:42:58;2.50;99.90
59025;DHT22;44806;48.008;13.666;2024-03-08T00:45:25;2.50;99.90
59025;DHT22;44806;48.008;13.666;2024-03-08T00:47:52;2.50;99.90
59025;DHT22;44806;48.008;13.666;2024-03-08T00:50:21;2.50;99.90
59025;DHT22;44806;48.008;13.666;2024-03-08T00:52:48;2.50;99.90
59025;DHT22;44806;48.008;13.666;2024-03-08T00:55:15;2.50;99.90
59025;DHT22;44806;48.008;13.666;2024-03-08T00:57:42;2.50;99.90
59025;DHT22;44806;48.008;13.666;2024-03-08T01:00:10;2.40;99.90
59025;DHT22;44806;48.008;13.666;2024-03-08T01:02:38;2.40;99.90
59025;DHT22;44806;48.008;13.666;2024-03-08T01:05:06;2.40;99.90
59025;DHT22;44806;48.008;13.666;2024-03-08T01:07:35;2.40;99.90
59025;DHT22;44806;48.008;13.666;2024-03-08T01:10:02;2.40;99.90
59025;DHT22;44806;48.008;13.666;2024-03-08T01:12:29;2.40;99.90
59025;DHT22;44806;48.008;13.666;2024-03-08T01:14:56;2.30;99.90
59025;DHT22;44806;48.008;13.666;2024-03-08T01:17:24;2.30;99.90
59025;DHT22;44806;48.008;13.666;2024-03-08T01:19:51;2.30;99.90
59025;DHT22;44806;48.008;13.666;2024-03-08T01:22:18;2.30;99.90
59025;DHT22;44806;48.008;13.666;2024-03-08T01:24:47;2.30;99.90
59025;DHT22;44806;48.008;13.666;2024-03-08T01:27:14;2.20;99.90
59025;DHT22;44806;48.008;13.666;2024-03-08T01:29:41;2.30;99.90
59025;DHT22;44806;48.008;13.666;2024-03-08T01:32:08;2.20;99.90
59025;DHT22;44806;48.008;13.666;2024-03-08T01:34:35;2.20;99.90
59025;DHT22;44806;48.008;13.666;2024-03-08T01:37:02;2.20;99.90
59025;DHT22;44806;48.008;13.666;2024-03-08T01:39:29;2.20;99.90
59025;DHT22;44806;48.008;13.666;2024-03-08T01:41:59;2.20;99.90
59025;DHT22;44806;48.008;13.666;2024-03-08T01:44:26;2.20;99.90
59025;DHT22;44806;48.008;13.666;2024-03-08T01:46:53;2.20;99.90
59025;DHT22;44806;48.008;13.666;2024-03-08T01:49:22;2.20;99.90
59025;DHT22;44806;48.008;13.666;2024-03-08T01:51:49;2.20;99.90
59025;DHT22;44806;48.008;13.666;2024-03-08T01:54:18;2.20;99.90
59025;DHT22;44806;48.008;13.666;2024-03-08T01:56:46;2.20;99.90
59025;DHT22;44806;48.008;13.666;2024-03-08T01:59:16;2.20;99.90
59025;DHT22;44806;48.008;13.666;2024-03-08T02:01:43;2.20;99.90
59025;DHT22;44806;48.008;13.666;2024-03-08T02:04:10;2.20;99.90
59025;DHT22;44806;48.008;13.666;2024-03-08T02:06:37;2.20;99.90
59025;DHT22;44806;48.008;13.666;2024-03-08T02:09:05;2.20;99.90
59025;DHT22;44806;48.008;13.666;2024-03-08T02:11:33;2.20;99.90
59025;DHT22;44806;48.008;13.666;2024-03-08T02:14:00;2.20;99.90
59025;DHT22;44806;48.008;13.666;2024-03-08T02:16:28;2.20;99.90
59025;DHT22;44806;48.008;13.666;2024-03-08T02:18:55;2.20;99.90
59025;DHT22;44806;48.008;13.666;2024-03-08T02:21:24;2.30;99.90
59025;DHT22;44806;48.008;13.666;2024-03-08T02:23:52;2.30;99.90
59025;DHT22;44806;48.008;13.666;2024-03-08T02:26:19;2.30;99.90
59025;DHT22;44806;48.008;13.666;2024-03-08T02:28:47;2.20;99.90
59025;DHT22;44806;48.008;13.666;2024-03-08T02:31:14;2.30;99.90
59025;DHT22;44806;48.008;13.666;2024-03-08T02:33:42;2.30;99.90
59025;DHT22;44806;48.008;13.666;2024-03-08T02:36:09;2.30;99.90
59025;DHT22;44806;48.008;13.666;2024-03-08T02:38:38;2.30;99.90
59025;DHT22;44806;48.008;13.666;2024-03-08T02:41:06;2.20;99.90
59025;DHT22;44806;48.008;13.666;2024-03-08T02:43:34;2.20;99.90
59025;DHT22;44806;48.008;13.666;2024-03-08T02:46:01;2.20;99.90
59025;DHT22;44806;48.008;13.666;2024-03-08T02:48:28;2.20;99.90
59025;DHT22;44806;48.008;13.666;2024-03-08T02:50:56;2.20;99.90
59025;DHT22;44806;48.008;13.666;2024-03-08T02:53:23;2.20;99.90
59025;DHT22;44806;48.008;13.666;2024-03-08T02:55:52;2.20;99.90
59025;DHT22;44806;48.008;13.666;2024-03-08T02:58:20;2.20;99.90
59025;DHT22;44806;48.008;13.666;2024-03-08T03:00:48;2.20;99.90
59025;DHT22;44806;48.008;13.666;2024-03-08T03:03:15;2.10;99.90
59025;DHT22;44806;48.008;13.666;2024-03-08T03:05:42;2.10;99.90
59025;DHT22;44806;48.008;13.666;2024-03-08T03:08:09;2.20;99.90
59025;DHT22;44806;48.008;13.666;2024-03-08T03:10:37;2.10;99.90
59025;DHT22;44806;48.008;13.666;2024-03-08T03:13:06;2.20;99.90
59025;DHT22;44806;48.008;13.666;2024-03-08T03:15:34;2.10;99.90
59025;DHT22;44806;48.008;13.666;2024-03-08T03:18:02;2.10;99.90
59025;DHT22;44806;48.008;13.666;2024-03-08T03:20:29;2.10;99.90
59025;DHT22;44806;48.008;13.666;2024-03-08T03:23:03;2.20;99.90
59025;DHT22;44806;48.008;13.666;2024-03-08T03:25:30;2.10;99.90
59025;DHT22;44806;48.008;13.666;2024-03-08T03:28:00;2.10;99.90
59025;DHT22;44806;48.008;13.666;2024-03-08T03:30:29;2.10;99.90
59025;DHT22;44806;48.008;13.666;2024-03-08T03:32:59;2.10;99.90
59025;DHT22;44806;48.008;13.666;2024-03-08T03:35:27;2.00;99.90
59025;DHT22;44806;48.008;13.666;2024-03-08T03:37:54;2.00;99.90
59025;DHT22;44806;48.008;13.666;2024-03-08T03:40:32;2.00;99.90
59025;DHT22;44806;48.008;13.666;2024-03-08T03:42:59;2.00;99.90
59025;DHT22;44806;48.008;13.666;2024-03-08T03:45:28;2.00;99.90
59025;DHT22;44806;48.008;13.666;2024-03-08T03:47:59;1.90;99.90
59025;DHT22;44806;48.008;13.666;2024-03-08T03:50:26;1.90;99.90
59025;DHT22;44806;48.008;13.666;2024-03-08T03:52:53;1.90;99.90
59025;DHT22;44806;48.008;13.666;2024-03-08T03:55:20;1.80;99.90
59025;DHT22;44806;48.008;13.666;2024-03-08T03:57:47;1.80;99.90
59025;DHT22;44806;48.008;13.666;2024-03-08T04:00:15;1.80;99.90
59025;DHT22;44806;48.008;13.666;2024-03-08T04:02:43;1.80;99.90
59025;DHT22;44806;48.008;13.666;2024-03-08T04:05:11;1.70;99.90
59025;DHT22;44806;48.008;13.666;2024-03-08T04:07:38;1.70;99.90
59025;DHT22;44806;48.008;13.666;2024-03-08T04:10:07;1.70;99.90
59025;DHT22;44806;48.008;13.666;2024-03-08T04:12:35;1.70;99.90
59025;DHT22;44806;48.008;13.666;2024-03-08T04:15:03;1.70;99.90
59025;DHT22;44806;48.008;13.666;2024-03-08T04:17:32;1.70;99.90
59025;DHT22;44806;48.008;13.666;2024-03-08T04:20:03;1.70;99.90
59025;DHT22;44806;48.008;13.666;2024-03-08T04:22:35;1.60;99.90
59025;DHT22;44806;48.008;13.666;2024-03-08T04:25:03;1.60;99.90
59025;DHT22;44806;48.008;13.666;2024-03-08T04:27:30;1.70;99.90
59025;DHT22;44806;48.008;13.666;2024-03-08T04:29:58;1.70;99.90
59025;DHT22;44806;48.008;13.666;2024-03-08T04:32:26;1.70;99.90
59025;DHT22;44806;48.008;13.666;2024-03-08T04:34:55;1.70;99.90
59025;DHT22;44806;48.008;13.666;2024-03-08T04:37:23;1.80;99.90
59025;DHT22;44806;48.008;13.666;2024-03-08T04:39:50;1.80;99.90
59025;DHT22;44806;48.008;13.666;2024-03-08T04:42:18;1.80;99.90
59025;DHT22;44806;48.008;13.666;2024-03-08T04:44:45;1.80;99.90
59025;DHT22;44806;48.008;13.666;2024-03-08T04:47:12;1.80;99.90
59025;DHT22;44806;48.008;13.666;2024-03-08T04:49:39;1.80;99.90
59025;DHT22;44806;48.008;13.666;2024-03-08T04:52:07;1.80;99.90
59025;DHT22;44806;48.008;13.666;2024-03-08T04:54:35;1.80;99.90
59025;DHT22;44806;48.008;13.666;2024-03-08T04:57:02;1.80;99.90
59025;DHT22;44806;48.008;13.666;2024-03-08T04:59:30;1.90;99.90
59025;DHT22;44806;48.008;13.666;2024-03-08T05:01:57;2.00;99.90
59025;DHT22;44806;48.008;13.666;2024-03-08T05:04:24;2.00;99.90
59025;DHT22;44806;48.008;13.666;2024-03-08T05:06:51;2.00;99.90
59025;DHT22;44806;48.008;13.666;2024-03-08T05:09:19;2.10;99.90
59025;DHT22;44806;48.008;13.666;2024-03-08T05:11:47;2.10;99.90
59025;DHT22;44806;48.008;13.666;2024-03-08T05:14:15;2.00;99.90
59025;DHT22;44806;48.008;13.666;2024-03-08T05:16:45;2.10;99.90
59025;DHT22;44806;48.008;13.666;2024-03-08T05:19:14;2.10;99.90
59025;DHT22;44806;48.008;13.666;2024-03-08T05:21:43;2.10;99.90
59025;DHT22;44806;48.008;13.666;2024-03-08T05:24:10;2.10;99.90
59025;DHT22;44806;48.008;13.666;2024-03-08T05:26:38;2.20;99.90
59025;DHT22;44806;48.008;13.666;2024-03-08T05:29:07;2.10;99.90
59025;DHT22;44806;48.008;13.666;2024-03-08T05:31:42;2.10;99.90
59025;DHT22;44806;48.008;13.666;2024-03-08T05:34:09;2.10;99.90
59025;DHT22;44806;48.008;13.666;2024-03-08T05:36:36;2.10;99.90
59025;DHT22;44806;48.008;13.666;2024-03-08T05:39:03;2.10;99.90
59025;DHT22;44806;48.008;13.666;2024-03-08T05:41:32;2.20;99.90
59025;DHT22;44806;48.008;13.666;2024-03-08T05:43:59;2.20;99.90
59025;DHT22;44806;48.008;13.666;2024-03-08T05:46:27;2.10;99.90
59025;DHT22;44806;48.008;13.666;2024-03-08T05:48:54;2.10;99.90
59025;DHT22;44806;48.008;13.666;2024-03-08T05:51:23;2.10;99.90
59025;DHT22;44806;48.008;13.666;2024-03-08T05:53:51;2.10;99.90
59025;DHT22;44806;48.008;13.666;2024-03-08T05:56:21;2.10;99.90
59025;DHT22;44806;48.008;13.666;2024-03-08T05:58:48;2.10;99.90
59025;DHT22;44806;48.008;13.666;2024-03-08T06:01:16;2.10;99.90
59025;DHT22;44806;48.008;13.666;2024-03-08T06:03:45;2.10;99.90
59025;DHT22;44806;48.008;13.666;2024-03-08T06:06:13;2.10;99.90
59025;DHT22;44806;48.008;13.666;2024-03-08T06:08:40;2.20;99.90
59025;DHT22;44806;48.008;13.666;2024-03-08T06:11:08;2.20;99.90
59025;DHT22;44806;48.008;13.666;2024-03-08T06:13:36;2.30;99.90
59025;DHT22;44806;48.008;13.666;2024-03-08T06:16:03;2.30;99.90
59025;DHT22;44806;48.008;13.666;2024-03-08T06:18:30;2.30;99.90
59025;DHT22;44806;48.008;13.666;2024-03-08T06:20:59;2.30;99.90
59025;DHT22;44806;48.008;13.666;2024-03-08T06:23:26;2.30;99.90
59025;DHT22;44806;48.008;13.666;2024-03-08T06:25:53;2.30;99.90
59025;DHT22;44806;48.008;13.666;2024-03-08T06:28:20;2.40;99.90
59025;DHT22;44806;48.008;13.666;2024-03-08T06:30:47;2.40;99.90
59025;DHT22;44806;48.008;13.666;2024-03-08T06:33:16;2.30;99.90
59025;DHT22;44806;48.008;13.666;2024-03-08T06:35:43;2.40;99.90
59025;DHT22;44806;48.008;13.666;2024-03-08T06:38:12;2.40;99.90
59025;DHT22;44806;48.008;13.666;2024-03-08T06:40:42;2.40;99.90
59025;DHT22;44806;48.008;13.666;2024-03-08T06:43:09;2.40;99.90
59025;DHT22;44806;48.008;13.666;2024-03-08T06:45:41;2.40;99.90
59025;DHT22;44806;48.008;13.666;2024-03-08T06:48:14;2.40;99.90
59025;DHT22;44806;48.008;13.666;2024-03-08T06:50:41;2.40;99.90
59025;DHT22;44806;48.008;13.666;2024-03-08T06:53:08;2.40;99.90
59025;DHT22;44806;48.008;13.666;2024-03-08T06:55:36;2.40;99.90
59025;DHT22;44806;48.008;13.666;2024-03-08T06:58:04;2.40;99.90
59025;DHT22;44806;48.008;13.666;2024-03-08T07:00:32;2.50;99.90
59025;DHT22;44806;48.008;13.666;2024-03-08T07:02:59;2.50;99.90
59025;DHT22;44806;48.008;13.666;2024-03-08T07:05:27;2.50;99.90
59025;DHT22;44806;48.008;13.666;2024-03-08T07:07:54;2.50;99.90
59025;DHT22;44806;48.008;13.666;2024-03-08T07:10:21;2.50;99.90
59025;DHT22;44806;48.008;13.666;2024-03-08T07:12:51;2.60;99.90
59025;DHT22;44806;48.008;13.666;2024-03-08T07:15:19;2.60;99.90
59025;DHT22;44806;48.008;13.666;2024-03-08T07:17:47;2.70;99.90
59025;DHT22;44806;48.008;13.666;2024-03-08T07:20:14;2.70;99.90
59025;DHT22;44806;48.008;13.666;2024-03-08T07:22:44;2.70;99.90
59025;DHT22;44806;48.008;13.666;2024-03-08T07:25:13;2.70;99.90
59025;DHT22;44806;48.008;13.666;2024-03-08T07:27:47;2.70;99.90
59025;DHT22;44806;48.008;13.666;2024-03-08T07:30:16;2.70;99.90
59025;DHT22;44806;48.008;13.666;2024-03-08T07:33:04;2.80;99.90
59025;DHT22;44806;48.008;13.666;2024-03-08T07:35:30;2.90;99.90
59025;DHT22;44806;48.008;13.666;2024-03-08T07:37:57;2.80;99.90
59025;DHT22;44806;48.008;13.666;2024-03-08T07:40:25;2.80;99.90
59025;DHT22;44806;48.008;13.666;2024-03-08T07:42:53;2.90;99.90
59025;DHT22;44806;48.008;13.666;2024-03-08T07:45:21;2.90;99.90
59025;DHT22;44806;48.008;13.666;2024-03-08T07:47:48;3.00;99.90
59025;DHT22;44806;48.008;13.666;2024-03-08T07:50:16;3.00;99.90
59025;DHT22;44806;48.008;13.666;2024-03-08T07:52:45;3.00;99.90
59025;DHT22;44806;48.008;13.666;2024-03-08T07:55:12;3.10;99.90
59025;DHT22;44806;48.008;13.666;2024-03-08T07:57:39;3.10;99.90
59025;DHT22;44806;48.008;13.666;2024-03-08T08:00:07;3.10;99.90
59025;DHT22;44806;48.008;13.666;2024-03-08T08:02:35;3.20;99.90
59025;DHT22;44806;48.008;13.666;2024-03-08T08:05:03;3.10;99.90
59025;DHT22;44806;48.008;13.666;2024-03-08T08:07:30;3.10;99.90
59025;DHT22;44806;48.008;13.666;2024-03-08T08:09:57;3.20;99.90
59025;DHT22;44806;48.008;13.666;2024-03-08T08:12:24;3.20;99.90
59025;DHT22;44806;48.008;13.666;2024-03-08T08:14:51;3.20;99.90
59025;DHT22;44806;48.008;13.666;2024-03-08T08:17:18;3.30;99.90
59025;DHT22;44806;48.008;13.666;2024-03-08T08:19:47;3.40;99.90
59025;DHT22;44806;48.008;13.666;2024-03-08T08:22:14;3.40;99.90
59025;DHT22;44806;48.008;13.666;2024-03-08T08:24:41;3.40;99.90
59025;DHT22;44806;48.008;13.666;2024-03-08T08:27:08;3.40;99.90
59025;DHT22;44806;48.008;13.666;2024-03-08T08:29:37;3.30;99.90
59025;DHT22;44806;48.008;13.666;2024-03-08T08:32:05;3.30;99.90
59025;DHT22;44806;48.008;13.666;2024-03-08T08:34:32;3.40;99.90
59025;DHT22;44806;48.008;13.666;2024-03-08T08:37:00;3.50;99.90
59025;DHT22;44806;48.008;13.666;2024-03-08T08:39:27;3.50;99.90
59025;DHT22;44806;48.008;13.666;2024-03-08T08:41:54;3.60;99.90
59025;DHT22;44806;48.008;13.666;2024-03-08T08:44:22;3.70;99.90
59025;DHT22;44806;48.008;13.666;2024-03-08T08:46:49;3.60;99.90
59025;DHT22;44806;48.008;13.666;2024-03-08T08:49:16;3.50;99.90
59025;DHT22;44806;48.008;13.666;2024-03-08T08:51:49;3.50;99.90
59025;DHT22;44806;48.008;13.666;2024-03-08T08:54:18;3.60;99.90
59025;DHT22;44806;48.008;13.666;2024-03-08T08:56:46;3.70;99.90
59025;DHT22;44806;48.008;13.666;2024-03-08T08:59:13;3.60;99.90
59025;DHT22;44806;48.008;13.666;2024-03-08T09:01:41;3.50;99.90
59025;DHT22;44806;48.008;13.666;2024-03-08T09:04:08;3.50;99.90
59025;DHT22;44806;48.008;13.666;2024-03-08T09:06:38;3.60;99.90
59025;DHT22;44806;48.008;13.666;2024-03-08T09:09:06;3.60;99.90
59025;DHT22;44806;48.008;13.666;2024-03-08T09:11:37;3.70;99.90
59025;DHT22;44806;48.008;13.666;2024-03-08T09:14:07;3.80;99.90
59025;DHT22;44806;48.008;13.666;2024-03-08T09:16:34;3.80;99.90
59025;DHT22;44806;48.008;13.666;2024-03-08T09:19:02;3.90;99.90
59025;DHT22;44806;48.008;13.666;2024-03-08T09:21:29;4.00;99.90
59025;DHT22;44806;48.008;13.666;2024-03-08T09:23:57;4.10;99.90
59025;DHT22;44806;48.008;13.666;2024-03-08T09:26:24;4.10;99.90
59025;DHT22;44806;48.008;13.666;2024-03-08T09:28:53;4.20;99.90
59025;DHT22;44806;48.008;13.666;2024-03-08T09:31:21;4.20;99.90
59025;DHT22;44806;48.008;13.666;2024-03-08T09:33:48;4.20;99.90
59025;DHT22;44806;48.008;13.666;2024-03-08T09:36:16;4.30;99.90
59025;DHT22;44806;48.008;13.666;2024-03-08T09:38:43;4.10;99.90
59025;DHT22;44806;48.008;13.666;2024-03-08T09:41:10;4.00;99.90
59025;DHT22;44806;48.008;13.666;2024-03-08T09:43:38;4.00;99.90
59025;DHT22;44806;48.008;13.666;2024-03-08T09:46:07;4.20;99.90
59025;DHT22;44806;48.008;13.666;2024-03-08T09:48:36;4.30;99.90
59025;DHT22;44806;48.008;13.666;2024-03-08T09:51:05;4.30;99.90
59025;DHT22;44806;48.008;13.666;2024-03-08T09:53:33;4.40;99.90
59025;DHT22;44806;48.008;13.666;2024-03-08T09:56:00;4.40;99.90
59025;DHT22;44806;48.008;13.666;2024-03-08T09:58:29;4.60;99.90
59025;DHT22;44806;48.008;13.666;2024-03-08T10:01:23;4.70;99.90
59025;DHT22;44806;48.008;13.666;2024-03-08T10:03:52;4.90;99.90
59025;DHT22;44806;48.008;13.666;2024-03-08T10:06:22;5.00;99.90
59025;DHT22;44806;48.008;13.666;2024-03-08T10:08:50;5.00;99.90
59025;DHT22;44806;48.008;13.666;2024-03-08T10:11:17;5.10;99.90
59025;DHT22;44806;48.008;13.666;2024-03-08T10:13:45;5.10;99.90
59025;DHT22;44806;48.008;13.666;2024-03-08T10:16:14;5.20;99.90
59025;DHT22;44806;48.008;13.666;2024-03-08T10:18:45;5.30;99.90
59025;DHT22;44806;48.008;13.666;2024-03-08T10:21:12;5.30;99.90
59025;DHT22;44806;48.008;13.666;2024-03-08T10:23:41;5.50;99.90
59025;DHT22;44806;48.008;13.666;2024-03-08T10:26:13;5.60;99.90
59025;DHT22;44806;48.008;13.666;2024-03-08T10:28:41;5.90;99.90
59025;DHT22;44806;48.008;13.666;2024-03-08T10:31:09;6.10;99.90
59025;DHT22;44806;48.008;13.666;2024-03-08T10:33:36;6.10;99.90
59025;DHT22;44806;48.008;13.666;2024-03-08T10:36:08;6.20;99.90
59025;DHT22;44806;48.008;13.666;2024-03-08T10:38:37;6.40;99.90
59025;DHT22;44806;48.008;13.666;2024-03-08T10:41:06;6.60;99.90
59025;DHT22;44806;48.008;13.666;2024-03-08T10:43:52;6.70;99.90
59025;DHT22;44806;48.008;13.666;2024-03-08T10:46:29;6.80;99.90
59025;DHT22;44806;48.008;13.666;2024-03-08T10:48:58;6.80;99.90
59025;DHT22;44806;48.008;13.666;2024-03-08T10:51:30;6.90;99.90
59025;DHT22;44806;48.008;13.666;2024-03-08T10:53:59;7.10;99.90
59025;DHT22;44806;48.008;13.666;2024-03-08T10:56:28;7.10;99.90
59025;DHT22;44806;48.008;13.666;2024-03-08T10:58:56;7.20;99.90
59025;DHT22;44806;48.008;13.666;2024-03-08T11:01:23;7.40;99.90
59025;DHT22;44806;48.008;13.666;2024-03-08T11:03:51;7.50;99.90
59025;DHT22;44806;48.008;13.666;2024-03-08T11:06:41;7.60;99.90
59025;DHT22;44806;48.008;13.666;2024-03-08T11:09:28;7.70;99.90
59025;DHT22;44806;48.008;13.666;2024-03-08T11:12:23;7.80;99.90
59025;DHT22;44806;48.008;13.666;2024-03-08T11:14:52;7.90;99.90
59025;DHT22;44806;48.008;13.666;2024-03-08T11:17:40;7.90;99.90
59025;DHT22;44806;48.008;13.666;2024-03-08T11:20:10;8.00;99.90
59025;DHT22;44806;48.008;13.666;2024-03-08T11:22:48;7.80;99.90
59025;DHT22;44806;48.008;13.666;2024-03-08T11:25:40;8.00;99.90
59025;DHT22;44806;48.008;13.666;2024-03-08T11:28:14;8.10;99.90
59025;DHT22;44806;48.008;13.666;2024-03-08T11:30:44;8.10;99.90
59025;DHT22;44806;48.008;13.666;2024-03-08T11:33:13;8.10;99.90
59025;DHT22;44806;48.008;13.666;2024-03-08T11:35:42;8.10;99.90
59025;DHT22;44806;48.008;13.666;2024-03-08T11:38:13;8.20;99.90
59025;DHT22;44806;48.008;13.666;2024-03-08T11:40:42;8.20;99.90
59025;DHT22;44806;48.008;13.666;2024-03-08T11:43:09;8.30;99.90
59025;DHT22;44806;48.008;13.666;2024-03-08T11:45:36;8.40;99.90
59025;DHT22;44806;48.008;13.666;2024-03-08T11:48:06;8.50;99.90
59025;DHT22;44806;48.008;13.666;2024-03-08T11:50:33;8.60;99.90
59025;DHT22;44806;48.008;13.666;2024-03-08T11:53:03;8.60;99.90
59025;DHT22;44806;48.008;13.666;2024-03-08T11:55:32;8.70;99.90
59025;DHT22;44806;48.008;13.666;2024-03-08T11:58:05;8.60;99.90
59025;DHT22;44806;48.008;13.666;2024-03-08T12:00:34;8.70;99.90
59025;DHT22;44806;48.008;13.666;2024-03-08T12:03:05;8.90;99.90
59025;DHT22;44806;48.008;13.666;2024-03-08T12:05:33;9.00;99.90
59025;DHT22;44806;48.008;13.666;2024-03-08T12:08:00;9.00;99.90
59025;DHT22;44806;48.008;13.666;2024-03-08T12:10:27;9.00;99.90
59025;DHT22;44806;48.008;13.666;2024-03-08T12:12:57;9.10;99.90
59025;DHT22;44806;48.008;13.666;2024-03-08T12:15:26;9.20;99.90
59025;DHT22;44806;48.008;13.666;2024-03-08T12:17:54;9.30;99.90
59025;DHT22;44806;48.008;13.666;2024-03-08T12:20:23;9.40;99.50
59025;DHT22;44806;48.008;13.666;2024-03-08T12:22:51;9.40;99.60
59025;DHT22;44806;48.008;13.666;2024-03-08T12:25:19;9.60;99.90
59025;DHT22;44806;48.008;13.666;2024-03-08T12:27:46;9.70;98.70
59025;DHT22;44806;48.008;13.666;2024-03-08T12:30:20;9.60;98.40
59025;DHT22;44806;48.008;13.666;2024-03-08T12:32:50;9.60;98.40
59025;DHT22;44806;48.008;13.666;2024-03-08T12:35:19;9.60;98.10
59025;DHT22;44806;48.008;13.666;2024-03-08T12:37:48;9.60;99.00
59025;DHT22;44806;48.008;13.666;2024-03-08T12:40:17;9.60;98.70
59025;DHT22;44806;48.008;13.666;2024-03-08T12:42:44;9.60;99.00
59025;DHT22;44806;48.008;13.666;2024-03-08T12:45:13;9.70;98.40
59025;DHT22;44806;48.008;13.666;2024-03-08T12:47:42;9.60;98.00
59025;DHT22;44806;48.008;13.666;2024-03-08T12:50:10;9.70;98.40
59025;DHT22;44806;48.008;13.666;2024-03-08T12:52:37;9.70;98.30
59025;DHT22;44806;48.008;13.666;2024-03-08T12:55:05;9.70;97.70
59025;DHT22;44806;48.008;13.666;2024-03-08T12:57:34;9.70;97.90
59025;DHT22;44806;48.008;13.666;2024-03-08T13:00:02;9.80;98.90
59025;DHT22;44806;48.008;13.666;2024-03-08T13:02:29;9.60;98.40
59025;DHT22;44806;48.008;13.666;2024-03-08T13:04:59;9.70;98.70
59025;DHT22;44806;48.008;13.666;2024-03-08T13:07:26;9.80;97.60
59025;DHT22;44806;48.008;13.666;2024-03-08T13:09:54;9.90;98.10
59025;DHT22;44806;48.008;13.666;2024-03-08T13:12:22;9.90;97.90
59025;DHT22;44806;48.008;13.666;2024-03-08T13:14:49;9.90;98.10
59025;DHT22;44806;48.008;13.666;2024-03-08T13:17:16;9.90;97.90
59025;DHT22;44806;48.008;13.666;2024-03-08T13:19:44;9.90;97.90
59025;DHT22;44806;48.008;13.666;2024-03-08T13:22:12;9.90;98.60
59025;DHT22;44806;48.008;13.666;2024-03-08T13:24:42;10.00;98.40
59025;DHT22;44806;48.008;13.666;2024-03-08T13:27:11;10.00;97.70
59025;DHT22;44806;48.008;13.666;2024-03-08T13:29:46;10.00;97.70
59025;DHT22;44806;48.008;13.666;2024-03-08T13:32:14;9.90;98.00
59025;DHT22;44806;48.008;13.666;2024-03-08T13:34:42;9.90;97.80
59025;DHT22;44806;48.008;13.666;2024-03-08T13:37:11;10.00;98.50
59025;DHT22;44806;48.008;13.666;2024-03-08T13:39:40;10.00;97.70
59025;DHT22;44806;48.008;13.666;2024-03-08T13:42:10;10.10;97.30
59025;DHT22;44806;48.008;13.666;2024-03-08T13:44:39;10.00;97.20
59025;DHT22;44806;48.008;13.666;2024-03-08T13:47:07;10.00;97.00
59025;DHT22;44806;48.008;13.666;2024-03-08T13:49:34;10.00;97.30
59025;DHT22;44806;48.008;13.666;2024-03-08T13:52:02;10.00;97.30
59025;DHT22;44806;48.008;13.666;2024-03-08T13:54:31;10.00;97.40
59025;DHT22;44806;48.008;13.666;2024-03-08T13:56:58;10.00;97.80
59025;DHT22;44806;48.008;13.666;2024-03-08T13:59:26;10.00;97.90
59025;DHT22;44806;48.008;13.666;2024-03-08T14:01:55;10.00;97.20
59025;DHT22;44806;48.008;13.666;2024-03-08T14:04:23;10.00;97.10
59025;DHT22;44806;48.008;13.666;2024-03-08T14:06:52;10.00;97.00
59025;DHT22;44806;48.008;13.666;2024-03-08T14:09:23;10.00;96.70
59025;DHT22;44806;48.008;13.666;2024-03-08T14:11:52;10.10;97.60
59025;DHT22;44806;48.008;13.666;2024-03-08T14:14:20;10.10;97.40
59025;DHT22;44806;48.008;13.666;2024-03-08T14:16:49;10.10;95.80
59025;DHT22;44806;48.008;13.666;2024-03-08T14:19:18;10.00;96.40
59025;DHT22;44806;48.008;13.666;2024-03-08T14:21:46;10.10;96.70
59025;DHT22;44806;48.008;13.666;2024-03-08T14:24:14;10.00;96.30
59025;DHT22;44806;48.008;13.666;2024-03-08T14:26:41;9.90;96.40
59025;DHT22;44806;48.008;13.666;2024-03-08T14:29:10;10.00;97.20
59025;DHT22;44806;48.008;13.666;2024-03-08T14:31:38;10.00;97.20
59025;DHT22;44806;48.008;13.666;2024-03-08T14:34:06;10.00;97.50
59025;DHT22;44806;48.008;13.666;2024-03-08T14:36:34;9.90;97.20
59025;DHT22;44806;48.008;13.666;2024-03-08T14:39:01;10.00;96.70
59025;DHT22;44806;48.008;13.666;2024-03-08T14:41:28;10.10;97.20
59025;DHT22;44806;48.008;13.666;2024-03-08T14:43:55;10.10;96.80
59025;DHT22;44806;48.008;13.666;2024-03-08T14:46:24;10.10;96.90
59025;DHT22;44806;48.008;13.666;2024-03-08T14:48:52;10.00;97.30
59025;DHT22;44806;48.008;13.666;2024-03-08T14:51:20;10.10;97.00
59025;DHT22;44806;48.008;13.666;2024-03-08T14:53:51;10.00;96.70
59025;DHT22;44806;48.008;13.666;2024-03-08T14:56:20;9.90;96.70
59025;DHT22;44806;48.008;13.666;2024-03-08T14:58:48;9.90;96.50
59025;DHT22;44806;48.008;13.666;2024-03-08T15:01:17;10.00;96.70
59025;DHT22;44806;48.008;13.666;2024-03-08T15:03:49;9.90;96.60
59025;DHT22;44806;48.008;13.666;2024-03-08T15:06:16;10.10;97.30
59025;DHT22;44806;48.008;13.666;2024-03-08T15:08:47;10.00;96.30
59025;DHT22;44806;48.008;13.666;2024-03-08T15:11:14;9.90;96.10
59025;DHT22;44806;48.008;13.666;2024-03-08T15:13:47;9.80;96.40
59025;DHT22;44806;48.008;13.666;2024-03-08T15:16:17;9.90;96.30
59025;DHT22;44806;48.008;13.666;2024-03-08T15:18:44;9.90;95.60
59025;DHT22;44806;48.008;13.666;2024-03-08T15:21:14;9.90;95.90
59025;DHT22;44806;48.008;13.666;2024-03-08T15:23:44;10.00;95.90
59025;DHT22;44806;48.008;13.666;2024-03-08T15:26:15;9.80;96.00
59025;DHT22;44806;48.008;13.666;2024-03-08T15:28:42;9.90;95.60
59025;DHT22;44806;48.008;13.666;2024-03-08T15:31:11;9.90;96.50
59025;DHT22;44806;48.008;13.666;2024-03-08T15:33:39;10.00;96.20
59025;DHT22;44806;48.008;13.666;2024-03-08T15:36:10;10.00;96.50
59025;DHT22;44806;48.008;13.666;2024-03-08T15:38:41;9.90;95.30